San Francisco, CA (94118)

2:26 PM PDT on September 19, 2014 (GMT -0700)
Mid Richmond | Change Station
CLOSE
Current Station
Personal Weather Station
Location: San Francisco, CA
Elevation: 200 ft
Nearby Weather Stations

Elev 200 ft 37.78 °N, 122.47 °W | Updated 9 seconds ago

Partly Cloudy
Partly Cloudy
65.5 °F
Feels Like 65.5 °F
N
6.0
Wind Variable Wind from West
Gusts 15.0 mph

Today
High -- | Low -- °F
--% Chance of Precip.
Yesterday
High -- | Low -- °F
Precip. -- in
6:55 AM 7:11 PM
Waning Crescent, 17% visible
Pressure 29.88 in
Visibility 10.0 miles
Clouds Few 800 ft
Dew Point 63 °F
Humidity 92%
Rainfall 0.00 in
Snow Depth 1 in , 1 in , 0 in
UV 7 out of 12
Pollen 4.70 out of 12
Ozone Good
PM2.5 Good
Flu Activity Not available.
METAR KSFO 192056Z 29018KT 10SM FEW008 23/17 A2988 RMK AO2 SLP117 T02280172 56014

More Conditions Fewer Conditions

Pressure 29.88 in
Visibility 10.0 miles
Clouds Few 800 ft
Dew Point 63 °F
Humidity 92%
Rainfall 0.00 in
Snow Depth 1 in , 1 in , 0 in
UV 7 out of 12
Pollen 4.70 out of 12
Ozone Good
PM2.5 Good
Flu Activity Not available.
METAR KSFO 192056Z 29018KT 10SM FEW008 23/17 A2988 RMK AO2 SLP117 T02280172 56014

More Conditions Fewer Conditions

10-Day Weather Forecast

Almanac

Astronomy

Sep. 19, 2014 Rise Set
Actual Time 6:55 AM PDT 7:11 PM PDT
Civil Twilight 6:28 AM PDT 7:37 PM PDT
Nautical Twilight 5:58 AM PDT 8:08 PM PDT
Astronomical Twilight 5:26 AM PDT 8:39 PM PDT
Moon 2:48 AM PDT 4:40 PM PDT
Length of Visible Light 13h 08m
Length of Day
12h 16m
Tomorrow will be 2m 25s shorter.
Waning Crescent, 17% of the Moon is Illuminated
Today
Waning Crescent
Sep 24
New
Oct 1
First Quarter
Oct 8
Full
Oct 15
Last Quarter

Today's Extremes

State Highs State Lows

Community

WunderPhotos

Upload Photos

1,754,703 photos uploaded!

WunderBlogs® & News

By Dr. Jeff Masters
Director of Meteorology, Weather Underground
By Kari Strenfel
Meteorologist, Weather Underground
By Christopher C. Burt
Weather Historian, Weather Underground
September 19, 2014
September 19, 2014
September 19, 2014

Nearby

Air Quality

  Air Quality AQ Index Pollutant
Yesterday Good
OZONE
Yesterday Good
PM2.5
Current Good
PM2.5
Current Good
OZONE
Friday Good
PM2.5
Saturday Moderate
PM2.5
Sunday Moderate
PM2.5
Monday Moderate
PM2.5
Tuesday Moderate
PM2.5
Wednesday Moderate
PM2.5

Snow Depth

Station Depth Elevation
CSS Lab 1 in 6900 ft
Adin Mountain 1 in 6200 ft
Leavitt Meadows 0 in 7200 ft
Summit Meadow 0 in 9122 ft

Earthquake Activity

City Distance Mag. Time & Date
Livermore, California 40 miles 2.6 3:37 AM PDT
2014-09-19
The Geysers, California 68 miles 2.5 11:29 PM PDT
2014-09-17
Cobb, California 71 miles 2.7 1:23 PM PDT
2014-09-16
Minimum magnitude displayed is 2.5.

Coastal Water Temperatures

Place Temperature
San Francisco, CA 64.9 °F
Richmond, CA 68.0 °F
Port Chicago, CA 70.0 °F

Nearby Weather Stations